sensor_id;sensor_type;location;lat;lon;timestamp;pressure;altitude;pressure_sealevel;temperature;humidity
23339;BME280;11841;49.368;20.962;2023-04-22T00:02:14;95679.38;;;3.91;77.16
23339;BME280;11841;49.368;20.962;2023-04-22T00:05:02;95677.47;;;3.85;77.18
23339;BME280;11841;49.368;20.962;2023-04-22T00:07:47;95677.00;;;3.81;77.52
23339;BME280;11841;49.368;20.962;2023-04-22T00:10:33;95684.22;;;3.79;77.80
23339;BME280;11841;49.368;20.962;2023-04-22T00:13:18;95681.31;;;3.74;77.45
23339;BME280;11841;49.368;20.962;2023-04-22T00:16:03;95674.94;;;3.77;77.65
23339;BME280;11841;49.368;20.962;2023-04-22T00:18:48;95688.19;;;3.75;77.31
23339;BME280;11841;49.368;20.962;2023-04-22T00:21:34;95675.16;;;3.67;77.55
23339;BME280;11841;49.368;20.962;2023-04-22T00:24:19;95682.34;;;3.65;77.64
23339;BME280;11841;49.368;20.962;2023-04-22T00:27:05;95682.53;;;3.63;77.51
23339;BME280;11841;49.368;20.962;2023-04-22T00:29:50;95683.06;;;3.59;77.72
23339;BME280;11841;49.368;20.962;2023-04-22T00:32:35;95683.44;;;3.56;77.82
23339;BME280;11841;49.368;20.962;2023-04-22T00:35:22;95680.50;;;3.51;77.95
23339;BME280;11841;49.368;20.962;2023-04-22T00:38:07;95677.25;;;3.49;77.89
23339;BME280;11841;49.368;20.962;2023-04-22T00:40:52;95676.94;;;3.44;77.92
23339;BME280;11841;49.368;20.962;2023-04-22T00:43:38;95678.75;;;3.43;78.14
23339;BME280;11841;49.368;20.962;2023-04-22T00:46:24;95669.09;;;3.44;78.15
23339;BME280;11841;49.368;20.962;2023-04-22T00:49:09;95666.19;;;3.39;77.95
23339;BME280;11841;49.368;20.962;2023-04-22T00:51:55;95662.09;;;3.36;77.92
23339;BME280;11841;49.368;20.962;2023-04-22T00:54:40;95662.09;;;3.36;78.28
23339;BME280;11841;49.368;20.962;2023-04-22T00:57:26;95664.53;;;3.38;78.31
23339;BME280;11841;49.368;20.962;2023-04-22T01:00:13;95666.84;;;3.33;78.19
23339;BME280;11841;49.368;20.962;2023-04-22T01:02:59;95669.19;;;3.28;78.56
23339;BME280;11841;49.368;20.962;2023-04-22T01:05:48;95671.16;;;3.26;78.46
23339;BME280;11841;49.368;20.962;2023-04-22T01:08:34;95674.78;;;3.25;78.95
23339;BME280;11841;49.368;20.962;2023-04-22T01:11:19;95671.97;;;3.26;78.59
23339;BME280;11841;49.368;20.962;2023-04-22T01:14:04;95672.91;;;3.33;78.94
23339;BME280;11841;49.368;20.962;2023-04-22T01:16:50;95675.72;;;3.32;78.48
23339;BME280;11841;49.368;20.962;2023-04-22T01:19:38;95679.66;;;3.28;78.60
23339;BME280;11841;49.368;20.962;2023-04-22T01:22:25;95681.19;;;3.22;78.90
23339;BME280;11841;49.368;20.962;2023-04-22T01:25:11;95670.22;;;3.19;78.59
23339;BME280;11841;49.368;20.962;2023-04-22T01:27:57;95680.41;;;3.14;79.16
23339;BME280;11841;49.368;20.962;2023-04-22T01:30:42;95678.28;;;3.09;79.03
23339;BME280;11841;49.368;20.962;2023-04-22T01:33:28;95675.19;;;3.06;79.07
23339;BME280;11841;49.368;20.962;2023-04-22T01:36:13;95678.16;;;3.03;79.41
23339;BME280;11841;49.368;20.962;2023-04-22T01:38:59;95667.03;;;3.01;79.13
23339;BME280;11841;49.368;20.962;2023-04-22T01:41:45;95673.94;;;3.02;78.89
23339;BME280;11841;49.368;20.962;2023-04-22T01:44:31;95670.31;;;3.03;79.44
23339;BME280;11841;49.368;20.962;2023-04-22T01:47:16;95675.91;;;3.00;79.52
23339;BME280;11841;49.368;20.962;2023-04-22T01:50:01;95679.03;;;2.95;79.62
23339;BME280;11841;49.368;20.962;2023-04-22T01:52:47;95688.03;;;2.93;79.48
23339;BME280;11841;49.368;20.962;2023-04-22T01:55:32;95683.78;;;2.92;79.42
23339;BME280;11841;49.368;20.962;2023-04-22T01:58:20;95682.16;;;2.91;79.83
23339;BME280;11841;49.368;20.962;2023-04-22T02:01:09;95674.13;;;2.92;79.38
23339;BME280;11841;49.368;20.962;2023-04-22T02:03:54;95682.16;;;2.91;79.05
23339;BME280;11841;49.368;20.962;2023-04-22T02:06:39;95677.91;;;2.90;79.10
23339;BME280;11841;49.368;20.962;2023-04-22T02:09:25;95677.25;;;2.88;79.09
23339;BME280;11841;49.368;20.962;2023-04-22T02:12:10;95674.16;;;2.84;79.38
23339;BME280;11841;49.368;20.962;2023-04-22T02:14:55;95669.28;;;2.81;79.39
23339;BME280;11841;49.368;20.962;2023-04-22T02:17:41;95670.41;;;2.79;79.72
23339;BME280;11841;49.368;20.962;2023-04-22T02:20:29;95670.75;;;2.76;80.10
23339;BME280;11841;49.368;20.962;2023-04-22T02:23:14;95673.53;;;2.74;79.72
23339;BME280;11841;49.368;20.962;2023-04-22T02:26:00;95668.50;;;2.73;79.60
23339;BME280;11841;49.368;20.962;2023-04-22T02:28:45;95668.81;;;2.70;79.65
23339;BME280;11841;49.368;20.962;2023-04-22T02:31:30;95666.34;;;2.68;79.73
23339;BME280;11841;49.368;20.962;2023-04-22T02:34:15;95664.25;;;2.64;79.96
23339;BME280;11841;49.368;20.962;2023-04-22T02:37:01;95663.44;;;2.63;79.61
23339;BME280;11841;49.368;20.962;2023-04-22T02:39:46;95663.28;;;2.65;79.51
23339;BME280;11841;49.368;20.962;2023-04-22T02:42:31;95662.28;;;2.66;79.31
23339;BME280;11841;49.368;20.962;2023-04-22T02:45:16;95660.97;;;2.62;79.12
23339;BME280;11841;49.368;20.962;2023-04-22T02:48:02;95659.72;;;2.58;79.61
23339;BME280;11841;49.368;20.962;2023-04-22T02:50:47;95657.56;;;2.53;79.66
23339;BME280;11841;49.368;20.962;2023-04-22T02:53:32;95662.97;;;2.52;79.88
23339;BME280;11841;49.368;20.962;2023-04-22T02:56:17;95670.03;;;2.51;80.10
23339;BME280;11841;49.368;20.962;2023-04-22T02:59:03;95661.19;;;2.52;79.86
23339;BME280;11841;49.368;20.962;2023-04-22T03:01:48;95664.94;;;2.49;79.51
23339;BME280;11841;49.368;20.962;2023-04-22T03:04:34;95659.41;;;2.44;79.78
23339;BME280;11841;49.368;20.962;2023-04-22T03:07:19;95658.13;;;2.40;80.00
23339;BME280;11841;49.368;20.962;2023-04-22T03:10:05;95675.44;;;2.41;79.71
23339;BME280;11841;49.368;20.962;2023-04-22T03:12:50;95665.63;;;2.43;80.05
23339;BME280;11841;49.368;20.962;2023-04-22T03:15:37;95668.59;;;2.40;79.37
23339;BME280;11841;49.368;20.962;2023-04-22T03:18:23;95675.78;;;2.38;80.10
23339;BME280;11841;49.368;20.962;2023-04-22T03:21:09;95676.78;;;2.37;79.81
23339;BME280;11841;49.368;20.962;2023-04-22T03:23:54;95678.75;;;2.35;80.13
23339;BME280;11841;49.368;20.962;2023-04-22T03:26:39;95676.13;;;2.35;80.32
23339;BME280;11841;49.368;20.962;2023-04-22T03:29:25;95679.88;;;2.33;79.75
23339;BME280;11841;49.368;20.962;2023-04-22T03:32:10;95675.97;;;2.29;79.68
23339;BME280;11841;49.368;20.962;2023-04-22T03:34:55;95683.34;;;2.25;79.93
23339;BME280;11841;49.368;20.962;2023-04-22T03:37:41;95681.03;;;2.22;79.77
23339;BME280;11841;49.368;20.962;2023-04-22T03:40:26;95687.25;;;2.21;79.84
23339;BME280;11841;49.368;20.962;2023-04-22T03:43:11;95683.66;;;2.22;80.32
23339;BME280;11841;49.368;20.962;2023-04-22T03:45:58;95683.03;;;2.20;80.30
23339;BME280;11841;49.368;20.962;2023-04-22T03:48:43;95683.34;;;2.25;79.97
23339;BME280;11841;49.368;20.962;2023-04-22T03:51:28;95688.41;;;2.27;79.98
23339;BME280;11841;49.368;20.962;2023-04-22T03:54:14;95693.81;;;2.25;80.23
23339;BME280;11841;49.368;20.962;2023-04-22T03:56:59;95691.50;;;2.22;80.50
23339;BME280;11841;49.368;20.962;2023-04-22T03:59:45;95689.88;;;2.21;80.87
23339;BME280;11841;49.368;20.962;2023-04-22T04:02:30;95691.66;;;2.21;80.81
23339;BME280;11841;49.368;20.962;2023-04-22T04:05:16;95694.78;;;2.24;80.47
23339;BME280;11841;49.368;20.962;2023-04-22T04:08:01;95698.03;;;2.26;80.72
23339;BME280;11841;49.368;20.962;2023-04-22T04:10:47;95694.44;;;2.27;80.43
23339;BME280;11841;49.368;20.962;2023-04-22T04:13:32;95703.28;;;2.26;80.67
23339;BME280;11841;49.368;20.962;2023-04-22T04:16:17;95701.66;;;2.25;81.11
23339;BME280;11841;49.368;20.962;2023-04-22T04:19:04;95704.44;;;2.24;81.43
23339;BME280;11841;49.368;20.962;2023-04-22T04:21:49;95704.75;;;2.29;81.34
23339;BME280;11841;49.368;20.962;2023-04-22T04:24:36;95705.88;;;2.34;81.49
23339;BME280;11841;49.368;20.962;2023-04-22T04:27:26;95711.94;;;2.35;81.19
23339;BME280;11841;49.368;20.962;2023-04-22T04:30:12;95708.19;;;2.37;81.52
23339;BME280;11841;49.368;20.962;2023-04-22T04:32:58;95706.50;;;2.44;81.41
23339;BME280;11841;49.368;20.962;2023-04-22T04:35:43;95717.28;;;2.49;81.88
23339;BME280;11841;49.368;20.962;2023-04-22T04:38:29;95717.47;;;2.56;81.60
23339;BME280;11841;49.368;20.962;2023-04-22T04:41:14;95716.28;;;2.59;81.31
23339;BME280;11841;49.368;20.962;2023-04-22T04:43:59;95715.31;;;2.60;82.15
23339;BME280;11841;49.368;20.962;2023-04-22T04:46:45;95715.16;;;2.61;82.13
23339;BME280;11841;49.368;20.962;2023-04-22T04:49:31;95721.84;;;2.64;82.66
23339;BME280;11841;49.368;20.962;2023-04-22T04:52:16;95717.25;;;2.66;82.96
23339;BME280;11841;49.368;20.962;2023-04-22T04:55:01;95721.97;;;2.70;82.95
23339;BME280;11841;49.368;20.962;2023-04-22T04:57:47;95721.66;;;2.73;83.87
23339;BME280;11841;49.368;20.962;2023-04-22T05:00:32;95709.38;;;2.82;83.81
23339;BME280;11841;49.368;20.962;2023-04-22T05:03:18;95710.94;;;2.91;83.44
23339;BME280;11841;49.368;20.962;2023-04-22T05:06:04;95713.41;;;2.92;84.04
23339;BME280;11841;49.368;20.962;2023-04-22T05:08:49;95712.91;;;2.97;83.95
23339;BME280;11841;49.368;20.962;2023-04-22T05:11:34;95715.47;;;3.05;84.32
23339;BME280;11841;49.368;20.962;2023-04-22T05:14:19;95711.53;;;3.09;84.27
23339;BME280;11841;49.368;20.962;2023-04-22T05:17:05;95717.53;;;3.17;84.60
23339;BME280;11841;49.368;20.962;2023-04-22T05:19:50;95713.41;;;3.23;84.40
23339;BME280;11841;49.368;20.962;2023-04-22T05:22:35;95711.09;;;3.28;84.53
23339;BME280;11841;49.368;20.962;2023-04-22T05:25:21;95705.19;;;3.34;84.85
23339;BME280;11841;49.368;20.962;2023-04-22T05:28:06;95707.75;;;3.42;84.94
23339;BME280;11841;49.368;20.962;2023-04-22T05:30:51;95712.75;;;3.51;85.11
23339;BME280;11841;49.368;20.962;2023-04-22T05:33:37;95706.19;;;3.55;85.64
23339;BME280;11841;49.368;20.962;2023-04-22T05:36:22;95704.34;;;3.64;85.90
23339;BME280;11841;49.368;20.962;2023-04-22T05:39:07;95697.78;;;3.68;86.61
23339;BME280;11841;49.368;20.962;2023-04-22T05:41:53;95693.28;;;3.77;87.12
23339;BME280;11841;49.368;20.962;2023-04-22T05:44:38;95698.47;;;3.85;86.92
23339;BME280;11841;49.368;20.962;2023-04-22T05:47:23;95699.03;;;3.95;86.81
23339;BME280;11841;49.368;20.962;2023-04-22T05:50:09;95704.03;;;4.04;86.44
23339;BME280;11841;49.368;20.962;2023-04-22T05:52:55;95702.97;;;4.13;87.03
23339;BME280;11841;49.368;20.962;2023-04-22T05:55:40;95696.66;;;4.22;87.25
23339;BME280;11841;49.368;20.962;2023-04-22T05:58:26;95697.22;;;4.32;88.06
23339;BME280;11841;49.368;20.962;2023-04-22T06:01:12;95698.16;;;4.39;88.36
23339;BME280;11841;49.368;20.962;2023-04-22T06:03:57;95695.06;;;4.50;88.39
23339;BME280;11841;49.368;20.962;2023-04-22T06:06:42;95694.00;;;4.59;88.05
23339;BME280;11841;49.368;20.962;2023-04-22T06:09:27;95705.22;;;4.68;87.92
23339;BME280;11841;49.368;20.962;2023-04-22T06:12:13;95704.94;;;4.77;87.67
23339;BME280;11841;49.368;20.962;2023-04-22T06:14:59;95696.78;;;4.87;87.37
23339;BME280;11841;49.368;20.962;2023-04-22T06:17:44;95702.41;;;4.99;88.28
23339;BME280;11841;49.368;20.962;2023-04-22T06:20:30;95702.75;;;5.10;87.34
23339;BME280;11841;49.368;20.962;2023-04-22T06:23:20;95696.84;;;5.23;87.85
23339;BME280;11841;49.368;20.962;2023-04-22T06:26:05;95696.63;;;5.39;88.05
23339;BME280;11841;49.368;20.962;2023-04-22T06:28:51;95700.78;;;5.48;87.62
23339;BME280;11841;49.368;20.962;2023-04-22T06:31:36;95699.75;;;5.63;88.38
23339;BME280;11841;49.368;20.962;2023-04-22T06:34:22;95692.19;;;5.75;87.87
23339;BME280;11841;49.368;20.962;2023-04-22T06:37:07;95699.97;;;5.83;87.81
23339;BME280;11841;49.368;20.962;2023-04-22T06:39:53;95693.22;;;5.95;87.67
23339;BME280;11841;49.368;20.962;2023-04-22T06:42:38;95693.81;;;6.18;88.47
23339;BME280;11841;49.368;20.962;2023-04-22T06:45:24;95686.13;;;6.44;87.19
23339;BME280;11841;49.368;20.962;2023-04-22T06:48:09;95686.44;;;6.62;85.92
23339;BME280;11841;49.368;20.962;2023-04-22T06:50:54;95681.13;;;6.83;85.22
23339;BME280;11841;49.368;20.962;2023-04-22T06:53:41;95682.63;;;6.99;84.85
23339;BME280;11841;49.368;20.962;2023-04-22T06:56:26;95685.94;;;7.14;83.99
23339;BME280;11841;49.368;20.962;2023-04-22T06:59:11;95678.09;;;7.27;84.00
23339;BME280;11841;49.368;20.962;2023-04-22T07:01:57;95687.28;;;7.51;83.07
23339;BME280;11841;49.368;20.962;2023-04-22T07:04:42;95674.34;;;7.69;82.21
23339;BME280;11841;49.368;20.962;2023-04-22T07:07:28;95677.22;;;7.74;82.06
23339;BME280;11841;49.368;20.962;2023-04-22T07:10:14;95678.66;;;7.83;81.89
23339;BME280;11841;49.368;20.962;2023-04-22T07:12:59;95674.41;;;7.95;81.77
23339;BME280;11841;49.368;20.962;2023-04-22T07:15:44;95672.38;;;8.10;81.14
23339;BME280;11841;49.368;20.962;2023-04-22T07:18:30;95675.66;;;8.31;80.70
23339;BME280;11841;49.368;20.962;2023-04-22T07:21:15;95674.66;;;8.45;79.59
23339;BME280;11841;49.368;20.962;2023-04-22T07:24:00;95678.53;;;8.56;79.66
23339;BME280;11841;49.368;20.962;2023-04-22T07:26:46;95679.72;;;8.73;78.73
23339;BME280;11841;49.368;20.962;2023-04-22T07:29:31;95672.97;;;8.90;77.61
23339;BME280;11841;49.368;20.962;2023-04-22T07:32:16;95672.31;;;9.01;77.34
23339;BME280;11841;49.368;20.962;2023-04-22T07:35:02;95669.41;;;9.22;76.64
23339;BME280;11841;49.368;20.962;2023-04-22T07:37:47;95669.16;;;9.43;75.03
23339;BME280;11841;49.368;20.962;2023-04-22T07:40:32;95668.41;;;9.67;74.13
23339;BME280;11841;49.368;20.962;2023-04-22T07:43:18;95664.91;;;10.05;72.19
23339;BME280;11841;49.368;20.962;2023-04-22T07:46:03;95666.84;;;10.22;71.35
23339;BME280;11841;49.368;20.962;2023-04-22T07:48:49;95667.34;;;10.37;70.08
23339;BME280;11841;49.368;20.962;2023-04-22T07:51:35;95663.66;;;10.63;69.08
23339;BME280;11841;49.368;20.962;2023-04-22T07:54:20;95657.38;;;10.82;67.05
23339;BME280;11841;49.368;20.962;2023-04-22T07:57:05;95659.72;;;10.90;65.33
23339;BME280;11841;49.368;20.962;2023-04-22T07:59:51;95659.97;;;11.07;64.77
23339;BME280;11841;49.368;20.962;2023-04-22T08:02:36;95655.56;;;11.37;60.59
23339;BME280;11841;49.368;20.962;2023-04-22T08:05:22;95660.16;;;11.59;58.29
23339;BME280;11841;49.368;20.962;2023-04-22T08:08:07;95657.25;;;11.67;59.20
23339;BME280;11841;49.368;20.962;2023-04-22T08:10:52;95652.75;;;11.79;56.92
23339;BME280;11841;49.368;20.962;2023-04-22T08:13:37;95651.31;;;11.95;55.16
23339;BME280;11841;49.368;20.962;2023-04-22T08:16:23;95648.50;;;12.20;55.18
23339;BME280;11841;49.368;20.962;2023-04-22T08:19:08;95650.28;;;12.49;52.61
23339;BME280;11841;49.368;20.962;2023-04-22T08:21:53;95647.41;;;12.62;51.96
23339;BME280;11841;49.368;20.962;2023-04-22T08:24:39;95651.91;;;12.61;51.22
23339;BME280;11841;49.368;20.962;2023-04-22T08:27:24;95644.88;;;12.67;51.63
23339;BME280;11841;49.368;20.962;2023-04-22T08:30:10;95645.69;;;12.67;52.35
23339;BME280;11841;49.368;20.962;2023-04-22T08:32:55;95643.38;;;12.71;52.38
23339;BME280;11841;49.368;20.962;2023-04-22T08:35:40;95639.53;;;12.90;51.88
23339;BME280;11841;49.368;20.962;2023-04-22T08:38:25;95642.88;;;12.97;51.14
23339;BME280;11841;49.368;20.962;2023-04-22T08:41:11;95648.22;;;13.20;49.67
23339;BME280;11841;49.368;20.962;2023-04-22T08:43:56;95634.75;;;13.38;50.86
23339;BME280;11841;49.368;20.962;2023-04-22T08:46:43;95633.09;;;13.49;51.24
23339;BME280;11841;49.368;20.962;2023-04-22T08:49:33;95630.97;;;13.62;47.96
23339;BME280;11841;49.368;20.962;2023-04-22T08:52:18;95644.31;;;13.62;48.74
23339;BME280;11841;49.368;20.962;2023-04-22T08:55:05;95634.53;;;13.68;47.15
23339;BME280;11841;49.368;20.962;2023-04-22T08:57:51;95629.34;;;13.61;48.68
23339;BME280;11841;49.368;20.962;2023-04-22T09:00:40;95634.44;;;13.63;47.27
23339;BME280;11841;49.368;20.962;2023-04-22T09:03:26;95632.09;;;13.66;48.50
23339;BME280;11841;49.368;20.962;2023-04-22T09:06:12;95631.06;;;13.67;47.20
23339;BME280;11841;49.368;20.962;2023-04-22T09:08:57;95636.34;;;13.79;47.70
23339;BME280;11841;49.368;20.962;2023-04-22T09:11:43;95630.03;;;13.96;47.20
23339;BME280;11841;49.368;20.962;2023-04-22T09:14:28;95624.88;;;14.06;47.71
23339;BME280;11841;49.368;20.962;2023-04-22T09:17:15;95628.31;;;14.07;46.98
23339;BME280;11841;49.368;20.962;2023-04-22T09:20:02;95624.16;;;14.11;46.84
23339;BME280;11841;49.368;20.962;2023-04-22T09:22:48;95624.44;;;14.26;45.63
23339;BME280;11841;49.368;20.962;2023-04-22T09:25:33;95628.16;;;14.41;45.37
23339;BME280;11841;49.368;20.962;2023-04-22T09:28:19;95625.34;;;14.48;45.39
23339;BME280;11841;49.368;20.962;2023-04-22T09:31:05;95623.56;;;14.53;44.96
23339;BME280;11841;49.368;20.962;2023-04-22T09:33:52;95625.06;;;14.66;44.94
23339;BME280;11841;49.368;20.962;2023-04-22T09:36:38;95618.03;;;14.77;45.45
23339;BME280;11841;49.368;20.962;2023-04-22T09:39:24;95611.41;;;14.79;44.07
23339;BME280;11841;49.368;20.962;2023-04-22T09:42:09;95610.66;;;14.84;43.81
23339;BME280;11841;49.368;20.962;2023-04-22T09:44:55;95615.97;;;15.00;45.52
23339;BME280;11841;49.368;20.962;2023-04-22T09:47:45;95610.69;;;15.22;43.05
23339;BME280;11841;49.368;20.962;2023-04-22T09:50:31;95599.00;;;15.28;44.49
23339;BME280;11841;49.368;20.962;2023-04-22T09:53:19;95603.50;;;15.27;42.74
23339;BME280;11841;49.368;20.962;2023-04-22T09:56:04;95597.38;;;15.27;42.49
23339;BME280;11841;49.368;20.962;2023-04-22T09:58:51;95608.53;;;15.40;43.84
23339;BME280;11841;49.368;20.962;2023-04-22T10:01:40;95599.00;;;15.49;42.21
23339;BME280;11841;49.368;20.962;2023-04-22T10:04:26;95604.66;;;15.53;43.06
23339;BME280;11841;49.368;20.962;2023-04-22T10:07:13;95594.53;;;15.55;42.47
23339;BME280;11841;49.368;20.962;2023-04-22T10:09:59;95598.28;;;15.54;42.67
23339;BME280;11841;49.368;20.962;2023-04-22T10:12:46;95596.34;;;15.71;43.22
23339;BME280;11841;49.368;20.962;2023-04-22T10:15:39;95596.69;;;15.80;42.33
23339;BME280;11841;49.368;20.962;2023-04-22T10:18:26;95588.38;;;15.76;42.22
23339;BME280;11841;49.368;20.962;2023-04-22T10:21:13;95589.72;;;15.79;41.36
23339;BME280;11841;49.368;20.962;2023-04-22T10:23:59;95579.03;;;15.79;40.73
23339;BME280;11841;49.368;20.962;2023-04-22T10:26:58;95585.53;;;15.88;41.12
23339;BME280;11841;49.368;20.962;2023-04-22T10:29:43;95571.97;;;15.94;42.85
23339;BME280;11841;49.368;20.962;2023-04-22T10:32:29;95584.91;;;16.07;41.42
23339;BME280;11841;49.368;20.962;2023-04-22T10:35:15;95575.03;;;16.08;41.15
23339;BME280;11841;49.368;20.962;2023-04-22T10:38:00;95572.34;;;16.08;41.49
23339;BME280;11841;49.368;20.962;2023-04-22T10:40:59;95576.50;;;16.20;42.09
23339;BME280;11841;49.368;20.962;2023-04-22T10:43:46;95579.28;;;16.35;40.31
23339;BME280;11841;49.368;20.962;2023-04-22T10:49:30;95573.72;;;16.10;38.24
23339;BME280;11841;49.368;20.962;2023-04-22T10:52:28;95581.53;;;15.90;37.98
23339;BME280;11841;49.368;20.962;2023-04-22T10:55:14;95580.16;;;15.83;39.79
23339;BME280;11841;49.368;20.962;2023-04-22T10:58:00;95579.34;;;15.82;40.43
23339;BME280;11841;49.368;20.962;2023-04-22T11:00:46;95564.94;;;15.83;40.89
23339;BME280;11841;49.368;20.962;2023-04-22T11:03:38;95574.53;;;15.84;39.89
23339;BME280;11841;49.368;20.962;2023-04-22T11:06:23;95575.09;;;15.86;39.78
23339;BME280;11841;49.368;20.962;2023-04-22T11:09:11;95570.81;;;15.85;40.92
23339;BME280;11841;49.368;20.962;2023-04-22T11:15:23;95573.69;;;15.79;39.49
23339;BME280;11841;49.368;20.962;2023-04-22T11:18:22;95569.16;;;15.79;38.86
23339;BME280;11841;49.368;20.962;2023-04-22T11:21:09;95569.66;;;15.76;39.72
23339;BME280;11841;49.368;20.962;2023-04-22T11:23:54;95565.91;;;15.77;39.04
23339;BME280;11841;49.368;20.962;2023-04-22T11:26:40;95566.44;;;15.74;39.21
23339;BME280;11841;49.368;20.962;2023-04-22T11:29:26;95562.13;;;15.73;39.19
23339;BME280;11841;49.368;20.962;2023-04-22T11:32:12;95555.72;;;15.74;40.12
23339;BME280;11841;49.368;20.962;2023-04-22T11:35:11;95561.38;;;15.78;39.34
23339;BME280;11841;49.368;20.962;2023-04-22T11:38:02;95568.84;;;15.76;40.77
23339;BME280;11841;49.368;20.962;2023-04-22T11:40:48;95564.63;;;15.80;40.51
23339;BME280;11841;49.368;20.962;2023-04-22T11:43:33;95561.47;;;15.88;40.77
23339;BME280;11841;49.368;20.962;2023-04-22T11:46:31;95555.19;;;16.04;40.02
23339;BME280;11841;49.368;20.962;2023-04-22T11:49:22;95556.69;;;16.21;41.36
23339;BME280;11841;49.368;20.962;2023-04-22T11:52:10;95557.66;;;16.42;40.59
23339;BME280;11841;49.368;20.962;2023-04-22T11:54:58;95548.47;;;16.59;40.64
23339;BME280;11841;49.368;20.962;2023-04-22T11:57:44;95549.09;;;16.76;39.81
23339;BME280;11841;49.368;20.962;2023-04-22T12:00:35;95548.06;;;16.82;39.71
23339;BME280;11841;49.368;20.962;2023-04-22T12:03:24;95548.38;;;16.91;39.20
23339;BME280;11841;49.368;20.962;2023-04-22T12:06:10;95539.00;;;16.93;37.92
23339;BME280;11841;49.368;20.962;2023-04-22T12:08:55;95546.78;;;16.90;38.89
23339;BME280;11841;49.368;20.962;2023-04-22T12:11:41;95540.66;;;17.00;38.96
23339;BME280;11841;49.368;20.962;2023-04-22T12:14:33;95542.34;;;17.16;39.04
23339;BME280;11841;49.368;20.962;2023-04-22T12:17:23;95542.34;;;17.21;37.82
23339;BME280;11841;49.368;20.962;2023-04-22T12:20:12;95546.91;;;17.15;37.53
23339;BME280;11841;49.368;20.962;2023-04-22T12:22:57;95537.00;;;17.21;38.91
23339;BME280;11841;49.368;20.962;2023-04-22T12:25:42;95533.84;;;17.29;38.04
23339;BME280;11841;49.368;20.962;2023-04-22T12:28:28;95531.66;;;17.26;36.34
23339;BME280;11841;49.368;20.962;2023-04-22T12:31:13;95532.97;;;17.13;36.35
23339;BME280;11841;49.368;20.962;2023-04-22T12:33:59;95531.53;;;16.96;35.88
23339;BME280;11841;49.368;20.962;2023-04-22T12:36:44;95536.06;;;16.90;37.10
23339;BME280;11841;49.368;20.962;2023-04-22T12:39:29;95531.22;;;16.87;37.37
23339;BME280;11841;49.368;20.962;2023-04-22T12:42:16;95528.19;;;16.73;36.74
23339;BME280;11841;49.368;20.962;2023-04-22T12:45:02;95532.19;;;16.66;37.25
23339;BME280;11841;49.368;20.962;2023-04-22T12:47:51;95524.13;;;16.61;37.25
23339;BME280;11841;49.368;20.962;2023-04-22T12:50:39;95525.69;;;16.57;37.44
23339;BME280;11841;49.368;20.962;2023-04-22T12:53:26;95525.13;;;16.55;37.63
23339;BME280;11841;49.368;20.962;2023-04-22T12:56:12;95532.91;;;16.56;39.25
23339;BME280;11841;49.368;20.962;2023-04-22T12:58:57;95526.53;;;16.62;39.45
23339;BME280;11841;49.368;20.962;2023-04-22T13:01:47;95522.84;;;16.73;38.87
23339;BME280;11841;49.368;20.962;2023-04-22T13:04:33;95521.28;;;16.82;39.88
23339;BME280;11841;49.368;20.962;2023-04-22T13:07:18;95517.88;;;16.97;38.55
23339;BME280;11841;49.368;20.962;2023-04-22T13:10:04;95508.81;;;17.03;36.99
23339;BME280;11841;49.368;20.962;2023-04-22T13:12:50;95513.34;;;17.03;37.63
23339;BME280;11841;49.368;20.962;2023-04-22T13:15:35;95511.50;;;17.08;37.64
23339;BME280;11841;49.368;20.962;2023-04-22T13:18:21;95504.53;;;17.07;37.26
23339;BME280;11841;49.368;20.962;2023-04-22T13:21:07;95502.16;;;17.16;37.41
23339;BME280;11841;49.368;20.962;2023-04-22T13:23:52;95500.84;;;17.18;37.49
23339;BME280;11841;49.368;20.962;2023-04-22T13:26:38;95505.13;;;17.19;39.26
23339;BME280;11841;49.368;20.962;2023-04-22T13:29:24;95500.03;;;17.23;39.19
23339;BME280;11841;49.368;20.962;2023-04-22T13:32:10;95499.28;;;17.27;38.60
23339;BME280;11841;49.368;20.962;2023-04-22T13:34:55;95494.94;;;17.21;38.54
23339;BME280;11841;49.368;20.962;2023-04-22T13:37:40;95497.91;;;17.20;39.01
23339;BME280;11841;49.368;20.962;2023-04-22T13:40:25;95497.91;;;17.20;38.88
23339;BME280;11841;49.368;20.962;2023-04-22T13:43:11;95492.56;;;17.25;38.27
23339;BME280;11841;49.368;20.962;2023-04-22T13:45:57;95489.59;;;17.26;38.06
23339;BME280;11841;49.368;20.962;2023-04-22T13:48:42;95496.59;;;17.27;36.39
23339;BME280;11841;49.368;20.962;2023-04-22T13:51:29;95489.03;;;17.19;36.37
23339;BME280;11841;49.368;20.962;2023-04-22T13:54:16;95495.19;;;17.15;36.51
23339;BME280;11841;49.368;20.962;2023-04-22T13:57:01;95496.00;;;17.10;36.38
23339;BME280;11841;49.368;20.962;2023-04-22T13:59:48;95494.13;;;17.16;37.55
23339;BME280;11841;49.368;20.962;2023-04-22T14:02:33;95490.41;;;17.27;37.21
23339;BME280;11841;49.368;20.962;2023-04-22T14:05:19;95498.47;;;17.32;36.43
23339;BME280;11841;49.368;20.962;2023-04-22T14:08:04;95495.78;;;17.27;36.38
23339;BME280;11841;49.368;20.962;2023-04-22T14:10:49;95492.03;;;17.28;36.47
23339;BME280;11841;49.368;20.962;2023-04-22T14:13:35;95490.44;;;17.37;37.58
23339;BME280;11841;49.368;20.962;2023-04-22T14:16:20;95494.00;;;17.47;38.18
23339;BME280;11841;49.368;20.962;2023-04-22T14:19:05;95491.88;;;17.64;38.48
23339;BME280;11841;49.368;20.962;2023-04-22T14:21:53;95490.81;;;17.75;38.14
23339;BME280;11841;49.368;20.962;2023-04-22T14:24:38;95487.38;;;17.85;38.07
23339;BME280;11841;49.368;20.962;2023-04-22T14:27:24;95483.88;;;17.89;37.85
23339;BME280;11841;49.368;20.962;2023-04-22T14:30:10;95479.59;;;17.98;36.71
23339;BME280;11841;49.368;20.962;2023-04-22T14:32:55;95478.78;;;18.03;37.23
23339;BME280;11841;49.368;20.962;2023-04-22T14:35:41;95486.00;;;18.02;35.86
23339;BME280;11841;49.368;20.962;2023-04-22T14:38:26;95485.75;;;17.94;35.98
23339;BME280;11841;49.368;20.962;2023-04-22T14:41:11;95470.72;;;17.83;35.57